Terminal Aerodrome Forecast
Issued by NWS Wakefield, VA

Home | Current Version | Previous Version | Text Only | Print | Product List | Glossary On
Versions: 1 2 3 4 5 6 7 8 9 10 11 12 13 14 15 16 17 18 19 20 21
000
FTUS41 KAKQ 292334
TAFSBY
TAF
KSBY 292334Z 3000/3024 15003KT P6SM FEW150
     FM301000 18003KT P6SM BKN020
     FM301300 20006KT P6SM SCT040
     FM301800 20010KT P6SM SCT040=

USA.gov is the U.S. government's official web portal to all federal, state and local government web resources and services.